createdAt,value
2018-04-06T00:00:08.719Z,4.41
2018-04-06T00:01:08.649Z,4.32
2018-04-06T00:02:08.563Z,4.34
2018-04-06T00:03:08.496Z,4.23
2018-04-06T00:04:08.405Z,4.19
2018-04-06T00:05:08.338Z,4.19
2018-04-06T00:06:08.248Z,4.19
2018-04-06T00:07:08.179Z,4.15
2018-04-06T00:08:08.089Z,4.08
2018-04-06T00:09:08.023Z,4.16
2018-04-06T00:10:07.931Z,4.12
2018-04-06T00:11:07.861Z,4.07
2018-04-06T00:12:07.771Z,4.08
2018-04-06T00:13:07.705Z,4.07
2018-04-06T00:14:07.612Z,4.08
2018-04-06T00:15:07.547Z,3.89
2018-04-06T00:16:07.456Z,3.89
2018-04-06T00:17:07.379Z,3.83
2018-04-06T00:18:07.297Z,3.84
2018-04-06T00:19:07.230Z,3.75
2018-04-06T00:20:07.134Z,3.77
2018-04-06T00:21:07.064Z,3.71
2018-04-06T00:22:06.981Z,3.74
2018-04-06T00:23:06.911Z,3.72
2018-04-06T00:24:06.819Z,3.68
2018-04-06T00:25:06.748Z,3.64
2018-04-06T00:26:06.659Z,3.68
2018-04-06T00:27:06.590Z,3.66
2018-04-06T00:28:06.496Z,3.64
2018-04-06T00:29:06.436Z,3.64
2018-04-06T00:30:06.344Z,3.59
2018-04-06T00:31:06.270Z,3.64
2018-04-06T00:32:06.184Z,3.66
2018-04-06T00:33:06.115Z,3.66
2018-04-06T00:34:06.065Z,3.61
2018-04-06T00:35:05.955Z,3.61
2018-04-06T00:36:05.871Z,3.68
2018-04-06T00:37:05.796Z,3.61
2018-04-06T00:38:05.710Z,3.64
2018-04-06T00:39:05.638Z,3.69
2018-04-06T00:40:05.550Z,3.59
2018-04-06T00:41:05.481Z,3.59
2018-04-06T00:42:05.391Z,3.62
2018-04-06T00:43:05.317Z,3.53
2018-04-06T00:44:05.232Z,3.53
2018-04-06T00:45:05.159Z,3.50
2018-04-06T00:46:05.071Z,3.56
2018-04-06T00:47:05.001Z,3.53
2018-04-06T00:48:04.911Z,3.56
2018-04-06T00:49:04.844Z,3.46
2018-04-06T00:50:04.762Z,3.51
2018-04-06T00:51:04.677Z,3.46
2018-04-06T00:52:04.588Z,3.47
2018-04-06T00:53:04.521Z,3.41
2018-04-06T00:54:04.437Z,3.44
2018-04-06T00:55:04.363Z,3.37
2018-04-06T00:56:04.274Z,3.32
2018-04-06T00:57:04.201Z,3.31
2018-04-06T00:58:04.114Z,3.32
2018-04-06T00:59:04.044Z,3.34
2018-04-06T01:00:03.954Z,3.37
2018-04-06T01:01:03.886Z,3.31
2018-04-06T01:02:03.798Z,3.32
2018-04-06T01:03:03.727Z,3.37
2018-04-06T01:04:03.635Z,3.32
2018-04-06T01:05:03.566Z,3.34
2018-04-06T01:06:03.477Z,3.25
2018-04-06T01:07:03.407Z,3.28
2018-04-06T01:08:03.317Z,3.39
2018-04-06T01:09:03.246Z,3.31
2018-04-06T01:10:03.155Z,3.28
2018-04-06T01:11:03.080Z,3.28
2018-04-06T01:12:02.998Z,3.19
2018-04-06T01:13:02.930Z,3.25
2018-04-06T01:14:02.835Z,3.14
2018-04-06T01:15:02.766Z,3.17
2018-04-06T01:16:02.681Z,3.17
2018-04-06T01:17:02.611Z,3.06
2018-04-06T01:18:02.516Z,2.99
2018-04-06T01:19:02.445Z,3.01
2018-04-06T01:20:02.358Z,2.74
2018-04-06T01:21:02.286Z,2.60
2018-04-06T01:22:02.204Z,2.57
2018-04-06T01:23:02.125Z,2.44
2018-04-06T01:24:02.038Z,2.32
2018-04-06T01:25:01.966Z,2.28
2018-04-06T01:26:01.909Z,2.37
2018-04-06T01:27:01.808Z,2.34
2018-04-06T01:28:01.719Z,2.48
2018-04-06T01:29:01.645Z,2.55
2018-04-06T01:30:01.557Z,2.49
2018-04-06T01:31:01.496Z,2.68
2018-04-06T01:32:01.398Z,2.60
2018-04-06T01:33:01.325Z,2.74
2018-04-06T01:34:01.238Z,2.80
2018-04-06T01:35:01.167Z,2.80
2018-04-06T01:36:01.077Z,2.80
2018-04-06T01:37:01.009Z,2.77
2018-04-06T01:38:00.921Z,2.81
2018-04-06T01:39:00.847Z,2.78
2018-04-06T01:40:00.761Z,2.78
2018-04-06T01:41:00.684Z,2.85
2018-04-06T01:42:00.599Z,2.78
2018-04-06T01:43:00.525Z,2.77
2018-04-06T01:44:00.437Z,2.77
2018-04-06T01:45:00.366Z,2.85
2018-04-06T01:46:00.277Z,2.71
2018-04-06T01:47:00.205Z,2.73
2018-04-06T01:48:00.120Z,2.68
2018-04-06T01:49:00.043Z,2.67
2018-04-06T01:49:59.953Z,2.62
2018-04-06T01:50:59.884Z,2.68
2018-04-06T01:51:59.795Z,2.68
2018-04-06T01:52:59.776Z,2.70
2018-04-06T01:53:59.635Z,2.67
2018-04-06T01:54:59.566Z,2.71
2018-04-06T01:55:59.473Z,2.66
2018-04-06T01:56:59.408Z,2.50
2018-04-06T01:57:59.318Z,2.55
2018-04-06T01:58:59.240Z,2.63
2018-04-06T01:59:59.155Z,2.55
2018-04-06T02:00:59.081Z,2.73
2018-04-06T02:01:58.994Z,2.57
2018-04-06T02:02:58.921Z,2.52
2018-04-06T02:03:58.833Z,2.59
2018-04-06T02:04:58.759Z,2.56
2018-04-06T02:05:58.673Z,2.62
2018-04-06T02:06:58.600Z,2.48
2018-04-06T02:07:58.514Z,2.48
2018-04-06T02:08:58.438Z,2.48
2018-04-06T02:09:58.350Z,2.44
2018-04-06T02:10:58.280Z,2.39
2018-04-06T02:11:58.198Z,2.38
2018-04-06T02:12:58.116Z,2.41
2018-04-06T02:13:58.030Z,2.44
2018-04-06T02:14:57.957Z,2.38
2018-04-06T02:15:57.869Z,2.42
2018-04-06T02:16:57.797Z,2.37
2018-04-06T02:17:57.707Z,2.35
2018-04-06T02:18:57.639Z,2.28
2018-04-06T02:19:57.547Z,2.13
2018-04-06T02:20:57.476Z,1.94
2018-04-06T02:21:57.384Z,1.87
2018-04-06T02:22:58.312Z,1.62
2018-04-06T02:23:57.225Z,1.47
2018-04-06T02:24:57.152Z,1.54
2018-04-06T02:25:57.065Z,1.50
2018-04-06T02:26:56.995Z,1.56
2018-04-06T02:27:56.905Z,1.61
2018-04-06T02:28:56.832Z,1.72
2018-04-06T02:29:56.741Z,1.72
2018-04-06T02:30:56.669Z,1.76
2018-04-06T02:31:56.580Z,1.83
2018-04-06T02:32:56.507Z,1.82
2018-04-06T02:33:56.419Z,1.94
2018-04-06T02:34:56.347Z,1.99
2018-04-06T02:35:56.258Z,2.02
2018-04-06T02:36:56.187Z,2.01
2018-04-06T02:37:56.097Z,1.99
2018-04-06T02:38:56.027Z,1.98
2018-04-06T02:39:55.937Z,1.98
2018-04-06T02:40:55.863Z,1.95
2018-04-06T02:41:55.778Z,1.92
2018-04-06T02:42:55.700Z,1.79
2018-04-06T02:43:55.613Z,1.58
2018-04-06T02:44:55.541Z,1.48
2018-04-06T02:45:55.451Z,1.38
2018-04-06T02:46:55.380Z,1.25
2018-04-06T02:47:55.289Z,1.28
2018-04-06T02:48:55.220Z,1.26
2018-04-06T02:49:55.133Z,1.30
2018-04-06T02:50:55.054Z,1.41
2018-04-06T02:51:54.966Z,1.50
2018-04-06T02:52:54.895Z,1.48
2018-04-06T02:53:54.806Z,1.54
2018-04-06T02:54:54.734Z,1.59
2018-04-06T02:55:54.644Z,1.58
2018-04-06T02:56:54.571Z,1.61
2018-04-06T02:57:54.485Z,1.61
2018-04-06T02:58:54.412Z,1.68
2018-04-06T02:59:54.320Z,1.65
2018-04-06T03:00:54.248Z,1.69
2018-04-06T03:01:54.164Z,1.82
2018-04-06T03:02:55.086Z,1.77
2018-04-06T03:03:53.996Z,1.79
2018-04-06T03:04:53.924Z,1.76
2018-04-06T03:05:53.836Z,1.72
2018-04-06T03:06:53.763Z,1.56
2018-04-06T03:07:53.673Z,1.44
2018-04-06T03:08:53.600Z,1.22
2018-04-06T03:09:53.512Z,1.25
2018-04-06T03:10:53.442Z,1.11
2018-04-06T03:11:53.351Z,1.11
2018-04-06T03:12:53.283Z,1.11
2018-04-06T03:13:53.190Z,1.22
2018-04-06T03:14:53.137Z,1.18
2018-04-06T03:15:53.026Z,1.19
2018-04-06T03:16:52.951Z,1.23
2018-04-06T03:17:52.863Z,1.28
2018-04-06T03:18:52.792Z,1.22
2018-04-06T03:19:52.706Z,1.29
2018-04-06T03:20:52.627Z,1.28
2018-04-06T03:21:52.541Z,1.34
2018-04-06T03:22:52.469Z,1.25
2018-04-06T03:23:52.379Z,1.28
2018-04-06T03:24:52.306Z,1.25
2018-04-06T03:25:52.218Z,1.10
2018-04-06T03:26:52.147Z,1.00
2018-04-06T03:27:52.055Z,0.86
2018-04-06T03:28:51.977Z,0.87
2018-04-06T03:29:51.894Z,0.72
2018-04-06T03:30:51.820Z,0.87
2018-04-06T03:31:51.739Z,0.90
2018-04-06T03:32:51.659Z,0.84
2018-04-06T03:33:51.573Z,1.00
2018-04-06T03:34:51.496Z,1.05
2018-04-06T03:35:51.404Z,1.04
2018-04-06T03:36:51.336Z,1.12
2018-04-06T03:37:51.245Z,1.11
2018-04-06T03:38:51.170Z,1.23
2018-04-06T03:39:51.082Z,1.22
2018-04-06T03:40:51.009Z,1.20
2018-04-06T03:41:50.916Z,1.18
2018-04-06T03:42:50.853Z,1.12
2018-04-06T03:43:50.760Z,1.04
2018-04-06T03:44:50.685Z,1.02
2018-04-06T03:45:50.597Z,0.87
2018-04-06T03:46:50.520Z,0.77
2018-04-06T03:47:50.432Z,0.77
2018-04-06T03:48:50.358Z,0.80
2018-04-06T03:49:50.272Z,0.71
2018-04-06T03:50:51.196Z,0.77
2018-04-06T03:51:50.109Z,0.87
2018-04-06T03:52:50.036Z,0.79
2018-04-06T03:53:49.949Z,0.87
2018-04-06T03:54:49.871Z,0.84
2018-04-06T03:55:49.781Z,0.97
2018-04-06T03:56:49.707Z,0.90
2018-04-06T03:57:49.617Z,0.86
2018-04-06T03:58:49.555Z,0.66
2018-04-06T03:59:49.457Z,0.65
2018-04-06T04:00:49.393Z,0.57
2018-04-06T04:01:49.303Z,0.57
2018-04-06T04:02:49.219Z,0.59
2018-04-06T04:03:49.130Z,0.64
2018-04-06T04:04:49.057Z,0.68
2018-04-06T04:05:48.971Z,0.61
2018-04-06T04:06:48.900Z,0.71
2018-04-06T04:07:48.807Z,0.80
2018-04-06T04:08:48.732Z,0.74
2018-04-06T04:09:48.642Z,0.75
2018-04-06T04:10:48.569Z,0.79
2018-04-06T04:11:48.481Z,0.84
2018-04-06T04:12:48.408Z,0.77
2018-04-06T04:13:48.319Z,0.80
2018-04-06T04:14:48.249Z,0.77
2018-04-06T04:15:48.154Z,0.77
2018-04-06T04:16:48.772Z,0.79
2018-04-06T04:17:47.992Z,0.66
2018-04-06T04:18:47.926Z,0.65
2018-04-06T04:19:47.826Z,0.64
2018-04-06T04:20:47.754Z,0.71
2018-04-06T04:21:47.666Z,0.59
2018-04-06T04:22:47.593Z,0.59
2018-04-06T04:23:47.502Z,0.71
2018-04-06T04:24:47.430Z,0.59
2018-04-06T04:25:47.341Z,0.59
2018-04-06T04:26:47.263Z,0.49
2018-04-06T04:27:47.175Z,0.52
2018-04-06T04:28:47.105Z,0.52
2018-04-06T04:29:47.021Z,0.45
2018-04-06T04:30:46.940Z,0.52
2018-04-06T04:31:46.850Z,0.57
2018-04-06T04:32:47.777Z,0.46
2018-04-06T04:33:46.698Z,0.56
2018-04-06T04:34:46.614Z,0.52
2018-04-06T04:35:46.521Z,0.62
2018-04-06T04:36:46.447Z,0.52
2018-04-06T04:37:46.363Z,0.59
2018-04-06T04:38:46.291Z,0.61
2018-04-06T04:39:46.199Z,0.68
2018-04-06T04:40:46.127Z,0.59
2018-04-06T04:41:46.036Z,0.62
2018-04-06T04:42:45.960Z,0.64
2018-04-06T04:43:45.872Z,0.64
2018-04-06T04:44:45.797Z,0.68
2018-04-06T04:45:45.712Z,0.56
2018-04-06T04:46:45.672Z,0.46
2018-04-06T04:47:45.546Z,0.32
2018-04-06T04:48:45.472Z,0.17
2018-04-06T04:49:45.380Z,0.14
2018-04-06T04:50:45.315Z,0.25
2018-04-06T04:51:45.219Z,0.21
2018-04-06T04:52:45.139Z,0.34
2018-04-06T04:53:45.051Z,0.31
2018-04-06T04:54:44.978Z,0.36
2018-04-06T04:55:44.890Z,0.32
2018-04-06T04:56:44.813Z,0.22
2018-04-06T04:57:44.727Z,0.16
2018-04-06T04:58:44.653Z,0.04
2018-04-06T04:59:44.564Z,0.07
2018-04-06T05:00:44.492Z,0.13
2018-04-06T05:01:44.404Z,0.11
2018-04-06T05:02:44.327Z,0.21
2018-04-06T05:03:44.238Z,0.25
2018-04-06T05:04:44.166Z,0.21
2018-04-06T05:05:44.076Z,0.18
2018-04-06T05:06:44.004Z,0.13
2018-04-06T05:07:43.910Z,0.04
2018-04-06T05:08:43.837Z,0.03
2018-04-06T05:09:43.753Z,-0.01
2018-04-06T05:10:43.673Z,0.13
2018-04-06T05:11:43.581Z,0.13
2018-04-06T05:12:43.510Z,0.11
2018-04-06T05:13:43.419Z,0.17
2018-04-06T05:14:43.348Z,0.25
2018-04-06T05:15:43.255Z,0.27
2018-04-06T05:16:43.183Z,0.29
2018-04-06T05:17:43.092Z,0.28
2018-04-06T05:18:43.017Z,0.36
2018-04-06T05:19:42.928Z,0.46
2018-04-06T05:20:42.854Z,0.45
2018-04-06T05:21:42.762Z,0.45
2018-04-06T05:22:42.691Z,0.56
2018-04-06T05:23:42.603Z,0.45
2018-04-06T05:24:42.527Z,0.50
2018-04-06T05:25:42.438Z,0.45
2018-04-06T05:26:42.368Z,0.46
2018-04-06T05:27:42.273Z,0.40
2018-04-06T05:28:42.203Z,0.47
2018-04-06T05:29:42.113Z,0.50
2018-04-06T05:30:42.035Z,0.42
2018-04-06T05:31:41.945Z,0.45
2018-04-06T05:32:41.873Z,0.53
2018-04-06T05:33:41.782Z,0.46
2018-04-06T05:34:41.707Z,0.52
2018-04-06T05:35:41.627Z,0.57
2018-04-06T05:36:41.536Z,0.53
2018-04-06T05:37:41.463Z,0.61
2018-04-06T05:38:41.438Z,0.59
2018-04-06T05:39:41.298Z,0.66
2018-04-06T05:40:41.210Z,0.71
2018-04-06T05:41:41.142Z,0.72
2018-04-06T05:42:41.045Z,0.66
2018-04-06T05:43:40.973Z,0.64
2018-04-06T05:44:40.883Z,0.68
2018-04-06T05:45:40.807Z,0.74
2018-04-06T05:46:40.721Z,0.74
2018-04-06T05:47:40.643Z,0.77
2018-04-06T05:48:40.560Z,0.80
2018-04-06T05:49:40.482Z,0.87
2018-04-06T05:50:40.394Z,0.83
2018-04-06T05:51:40.356Z,0.90
2018-04-06T05:52:40.227Z,0.90
2018-04-06T05:53:40.265Z,1.02
2018-04-06T05:54:40.066Z,0.87
2018-04-06T05:55:40.074Z,1.01
2018-04-06T05:56:39.901Z,0.93
2018-04-06T05:57:39.826Z,0.93
2018-04-06T05:58:39.738Z,0.93
2018-04-06T05:59:39.693Z,1.05
2018-04-06T06:00:39.574Z,1.10
2018-04-06T06:01:39.501Z,1.11
2018-04-06T06:02:39.414Z,1.20
2018-04-06T06:03:39.415Z,1.19
2018-04-06T06:04:39.248Z,1.16
2018-04-06T06:05:39.222Z,1.23
2018-04-06T06:06:39.087Z,1.23
2018-04-06T06:07:39.031Z,1.23
2018-04-06T06:08:38.920Z,1.26
2018-04-06T06:09:38.943Z,1.29
2018-04-06T06:10:38.758Z,1.26
2018-04-06T06:11:38.752Z,1.30
2018-04-06T06:12:38.595Z,1.32
2018-04-06T06:13:38.561Z,1.37
2018-04-06T06:14:38.432Z,1.52
2018-04-06T06:15:38.469Z,1.54
2018-04-06T06:16:38.268Z,1.56
2018-04-06T06:17:38.280Z,1.64
2018-04-06T06:18:38.107Z,1.61
2018-04-06T06:19:38.032Z,1.69
2018-04-06T06:20:37.943Z,1.74
2018-04-06T06:21:37.901Z,1.76
2018-04-06T06:22:37.780Z,1.84
2018-04-06T06:23:37.809Z,1.84
2018-04-06T06:24:37.623Z,2.01
2018-04-06T06:25:37.618Z,2.01
2018-04-06T06:26:37.454Z,1.98
2018-04-06T06:27:37.454Z,2.06
2018-04-06T06:28:37.288Z,2.12
2018-04-06T06:29:37.261Z,2.10
2018-04-06T06:30:37.136Z,2.14
2018-04-06T06:31:37.072Z,2.17
2018-04-06T06:32:36.966Z,2.17
2018-04-06T06:33:36.983Z,2.30
2018-04-06T06:34:36.802Z,2.30
2018-04-06T06:35:36.730Z,2.34
2018-04-06T06:36:36.639Z,2.49
2018-04-06T06:37:36.601Z,2.50
2018-04-06T06:38:36.480Z,2.46
2018-04-06T06:39:36.511Z,2.52
2018-04-06T06:40:36.316Z,2.66
2018-04-06T06:41:36.315Z,2.75
2018-04-06T06:42:36.156Z,2.81
2018-04-06T06:43:36.126Z,2.88
2018-04-06T06:44:35.992Z,2.85
2018-04-06T06:45:35.937Z,2.95
2018-04-06T06:46:35.830Z,2.99
2018-04-06T06:47:35.850Z,2.99
2018-04-06T06:48:35.670Z,3.07
2018-04-06T06:49:35.656Z,3.16
2018-04-06T06:50:35.508Z,3.11
2018-04-06T06:51:35.465Z,3.21
2018-04-06T06:52:35.343Z,3.29
2018-04-06T06:53:35.376Z,3.25
2018-04-06T06:54:35.182Z,3.41
2018-04-06T06:55:35.186Z,3.37
2018-04-06T06:56:35.017Z,3.39
2018-04-06T06:57:34.991Z,3.51
2018-04-06T06:58:34.855Z,3.51
2018-04-06T06:59:34.783Z,3.61
2018-04-06T07:00:34.693Z,3.71
2018-04-06T07:01:34.712Z,3.77
2018-04-06T07:02:34.535Z,3.65
2018-04-06T07:03:34.517Z,3.77
2018-04-06T07:04:34.374Z,3.80
2018-04-06T07:05:34.326Z,3.92
2018-04-06T07:06:34.214Z,3.84
2018-04-06T07:07:34.241Z,3.87
2018-04-06T07:08:34.050Z,4.00
2018-04-06T07:09:34.049Z,4.12
2018-04-06T07:10:33.892Z,4.22
2018-04-06T07:11:33.857Z,4.19
2018-04-06T07:12:33.729Z,4.28
2018-04-06T07:13:33.663Z,4.36
2018-04-06T07:14:33.565Z,4.54
2018-04-06T07:15:33.572Z,4.52
2018-04-06T07:16:33.412Z,4.55
2018-04-06T07:17:34.282Z,4.69
2018-04-06T07:18:33.243Z,4.69
2018-04-06T07:19:33.191Z,4.85
2018-04-06T07:20:33.084Z,4.93
2018-04-06T07:21:33.012Z,4.93
2018-04-06T07:22:33.007Z,5.02
2018-04-06T07:23:32.842Z,4.99
2018-04-06T07:24:32.816Z,5.08
2018-04-06T07:25:32.698Z,5.23
2018-04-06T07:26:32.624Z,5.29
2018-04-06T07:27:32.530Z,5.34
2018-04-06T07:28:32.455Z,5.44
2018-04-06T07:29:32.364Z,5.49
2018-04-06T07:30:32.346Z,5.53
2018-04-06T07:31:32.202Z,5.53
2018-04-06T07:32:32.237Z,5.67
2018-04-06T07:33:32.042Z,5.77
2018-04-06T07:34:32.065Z,5.86
2018-04-06T07:35:31.885Z,5.90
2018-04-06T07:36:31.881Z,6.08
2018-04-06T07:37:31.727Z,6.17
2018-04-06T07:38:31.683Z,6.18
2018-04-06T07:39:31.566Z,6.33
2018-04-06T07:40:31.593Z,6.48
2018-04-06T07:41:31.409Z,6.48
2018-04-06T07:42:31.401Z,6.70
2018-04-06T07:43:31.247Z,6.65
2018-04-06T07:44:31.214Z,6.86
2018-04-06T07:45:31.087Z,6.81
2018-04-06T07:46:31.119Z,6.87
2018-04-06T07:47:30.932Z,6.80
2018-04-06T07:48:30.927Z,6.91
2018-04-06T07:49:30.778Z,7.02
2018-04-06T07:50:30.703Z,6.94
2018-04-06T07:51:30.614Z,7.09
2018-04-06T07:52:30.652Z,7.23
2018-04-06T07:53:30.462Z,7.29
2018-04-06T07:54:30.459Z,7.26
2018-04-06T07:55:30.303Z,7.34
2018-04-06T07:56:30.266Z,7.29
2018-04-06T07:57:30.143Z,7.39
2018-04-06T07:58:34.887Z,7.38
2018-04-06T07:59:29.991Z,7.49
2018-04-06T08:00:31.933Z,7.64
2018-04-06T08:01:29.831Z,7.78
2018-04-06T08:02:41.365Z,7.90
2018-04-06T08:03:29.671Z,8.01
2018-04-06T08:04:36.461Z,8.12
2018-04-06T08:05:29.519Z,8.14
2018-04-06T08:06:29.512Z,8.19
2018-04-06T08:07:29.362Z,8.24
2018-04-06T08:08:29.323Z,8.42
2018-04-06T08:09:29.199Z,8.62
2018-04-06T08:10:29.233Z,8.72
2018-04-06T08:11:29.049Z,8.93
2018-04-06T08:12:30.065Z,9.12
2018-04-06T08:13:28.934Z,9.17
2018-04-06T08:14:28.850Z,9.24
2018-04-06T08:15:28.731Z,9.28
2018-04-06T08:16:28.757Z,9.42
2018-04-06T08:17:28.588Z,9.58
2018-04-06T08:18:28.574Z,9.80
2018-04-06T08:19:28.434Z,9.96
2018-04-06T08:20:28.395Z,10.10
2018-04-06T08:21:28.277Z,10.13
2018-04-06T08:22:28.286Z,10.00
2018-04-06T08:23:28.117Z,10.07
2018-04-06T08:24:28.059Z,10.18
2018-04-06T08:25:27.965Z,10.04
2018-04-06T08:26:27.911Z,10.07
2018-04-06T08:27:27.816Z,10.22
2018-04-06T08:28:27.742Z,10.16
2018-04-06T08:29:27.656Z,10.10
2018-04-06T08:30:27.589Z,10.10
2018-04-06T08:31:27.499Z,10.00
2018-04-06T08:32:27.435Z,10.00
2018-04-06T10:21:26.581Z,12.61
2018-04-06T10:22:26.562Z,12.71
2018-04-06T10:24:22.505Z,12.67
2018-04-06T10:25:22.325Z,12.79
2018-04-06T10:26:22.288Z,12.70
2018-04-06T10:27:22.168Z,12.70
2018-04-06T10:28:22.201Z,12.67
2018-04-06T10:29:22.010Z,12.81
2018-04-06T10:30:22.011Z,12.97
2018-04-06T10:31:21.855Z,13.06
2018-04-06T10:32:21.816Z,13.02
2018-04-06T10:33:21.706Z,13.11
2018-04-06T10:34:21.727Z,12.97
2018-04-06T10:35:21.550Z,12.82
2018-04-06T10:36:21.541Z,12.96
2018-04-06T10:37:21.397Z,13.21
2018-04-06T10:38:21.346Z,13.00
2018-04-06T10:39:21.246Z,13.03
2018-04-06T10:40:22.175Z,13.18
2018-04-06T10:41:21.095Z,13.14
2018-04-06T10:42:21.069Z,13.19
2018-04-06T10:43:20.948Z,13.15
2018-04-06T10:44:20.978Z,13.02
2018-04-06T10:45:20.794Z,12.94
2018-04-06T10:46:20.787Z,12.79
2018-04-06T10:47:20.648Z,12.73
2018-04-06T10:48:20.598Z,12.84
2018-04-06T10:49:20.498Z,13.00
2018-04-06T10:50:20.509Z,13.14
2018-04-06T10:51:20.368Z,13.14
2018-04-06T10:52:20.315Z,13.21
2018-04-06T10:53:20.239Z,13.18
2018-04-06T10:54:20.229Z,12.92
2018-04-06T10:55:20.044Z,12.85
2018-04-06T10:56:20.043Z,12.91
2018-04-06T10:57:19.893Z,12.99
2018-04-06T10:58:19.845Z,13.02
2018-04-06T10:59:19.748Z,12.99
2018-04-06T11:00:19.758Z,12.86
2018-04-06T11:01:19.597Z,12.86
2018-04-06T11:02:19.568Z,13.06
2018-04-06T11:03:19.449Z,13.03
2018-04-06T11:04:19.486Z,13.09
2018-04-06T11:05:19.301Z,12.96
2018-04-06T11:06:19.239Z,12.74
2018-04-06T11:07:19.164Z,12.85
2018-04-06T11:08:19.102Z,12.96
2018-04-06T11:09:19.007Z,13.03
2018-04-06T11:10:19.016Z,13.00
2018-04-06T11:11:18.853Z,13.14
2018-04-06T11:12:18.823Z,13.25
2018-04-06T11:13:18.706Z,13.40
2018-04-06T11:14:18.737Z,13.25
2018-04-06T11:15:18.560Z,13.21
2018-04-06T11:16:18.596Z,13.22
2018-04-06T11:17:18.409Z,13.32
2018-04-06T11:18:18.452Z,13.25
2018-04-06T11:19:18.266Z,13.14
2018-04-06T11:20:18.266Z,13.22
2018-04-06T11:21:18.120Z,13.10
2018-04-06T11:22:18.068Z,13.02
2018-04-06T11:23:17.973Z,13.03
2018-04-06T11:24:17.901Z,13.14
2018-04-06T11:25:17.824Z,13.25
2018-04-06T11:26:17.792Z,13.33
2018-04-06T11:27:17.677Z,13.47
2018-04-06T11:28:17.695Z,13.62
2018-04-06T11:29:17.528Z,13.76
2018-04-06T11:30:17.511Z,13.71
2018-04-06T11:31:17.379Z,13.77
2018-04-06T11:32:17.421Z,13.53
2018-04-06T11:33:17.232Z,13.38
2018-04-06T11:34:17.237Z,13.40
2018-04-06T11:35:17.087Z,13.47
2018-04-06T11:36:17.037Z,13.63
2018-04-06T11:37:16.940Z,13.53
2018-04-06T11:38:16.946Z,13.53
2018-04-06T11:39:16.795Z,13.45
2018-04-06T11:40:16.755Z,13.37
2018-04-06T11:41:16.649Z,13.37
2018-04-06T11:42:16.667Z,13.55
2018-04-06T11:43:16.501Z,13.62
2018-04-06T11:44:16.476Z,13.66
2018-04-06T11:45:16.353Z,13.87
2018-04-06T11:46:16.392Z,13.94
2018-04-06T11:47:16.209Z,13.92
2018-04-06T11:48:16.139Z,14.05
2018-04-06T11:49:16.059Z,14.14
2018-04-06T11:50:16.007Z,14.01
2018-04-06T11:51:15.920Z,14.01
2018-04-06T11:52:15.920Z,14.05
2018-04-06T11:53:15.767Z,14.13
2018-04-06T11:54:15.730Z,14.16
2018-04-06T11:55:15.629Z,14.28
2018-04-06T11:56:15.653Z,14.31
2018-04-06T11:57:15.519Z,14.29
2018-04-06T11:58:15.402Z,14.29
2018-04-06T11:59:15.330Z,14.38
2018-04-06T12:00:15.362Z,14.20
2018-04-06T12:01:15.183Z,14.17
2018-04-06T12:02:15.272Z,13.81
2018-04-06T12:03:15.039Z,13.74
2018-04-06T12:04:15.076Z,13.68
2018-04-06T12:05:14.894Z,13.77
2018-04-06T12:06:14.890Z,13.76
2018-04-06T12:07:14.744Z,13.77
2018-04-06T12:08:14.701Z,13.87
2018-04-06T12:09:14.600Z,13.87
2018-04-06T12:10:14.612Z,13.98
2018-04-06T12:11:14.465Z,14.03
2018-04-06T12:12:14.422Z,14.01
2018-04-06T12:13:14.311Z,13.99
2018-04-06T12:14:14.334Z,14.01
2018-04-06T12:15:14.164Z,14.02
2018-04-06T12:16:14.142Z,14.16
2018-04-06T12:17:14.018Z,14.28
2018-04-06T12:18:13.983Z,14.38
2018-04-06T12:19:13.875Z,14.31
2018-04-06T12:20:13.896Z,14.41
2018-04-06T12:21:13.729Z,14.41
2018-04-06T12:22:13.698Z,14.34
2018-04-06T12:23:13.579Z,14.47
2018-04-06T12:24:13.607Z,14.36
2018-04-06T12:25:13.432Z,14.39
2018-04-06T12:26:13.372Z,14.50
2018-04-06T12:27:13.401Z,14.50
2018-04-06T12:28:13.223Z,14.53
2018-04-06T12:29:13.207Z,14.50
2018-04-06T12:30:13.078Z,14.60
2018-04-06T12:31:13.117Z,14.57
2018-04-06T12:32:12.927Z,14.65
2018-04-06T12:33:12.929Z,14.72
2018-04-06T12:34:12.781Z,14.87
2018-04-06T12:35:12.737Z,14.83
2018-04-06T12:36:12.635Z,14.90
2018-04-06T12:37:12.648Z,14.87
2018-04-06T12:38:12.493Z,14.88
2018-04-06T12:39:12.425Z,14.80
2018-04-06T12:40:12.349Z,14.78
2018-04-06T12:41:12.365Z,14.94
2018-04-06T12:42:12.200Z,14.75
2018-04-06T12:43:12.185Z,14.78
2018-04-06T12:44:12.059Z,14.90
2018-04-06T12:45:12.001Z,14.83
2018-04-06T12:46:11.910Z,14.80
2018-04-06T12:47:11.900Z,14.69
2018-04-06T12:48:11.770Z,14.71
2018-04-06T12:49:11.809Z,14.83
2018-04-06T12:50:11.633Z,14.79
2018-04-06T12:51:11.615Z,14.75
2018-04-06T12:52:11.481Z,14.83
2018-04-06T12:53:11.405Z,14.67
2018-04-06T12:54:11.440Z,14.60
2018-04-06T12:55:11.262Z,14.60
2018-04-06T12:56:11.189Z,14.61
2018-04-06T12:57:11.117Z,14.61
2018-04-06T12:58:11.045Z,14.61
2018-04-06T12:59:10.974Z,14.61
2018-04-06T13:00:10.901Z,14.68
2018-04-06T13:01:10.974Z,14.69
2018-04-06T13:02:10.756Z,14.88
2018-04-06T13:03:10.878Z,14.97
2018-04-06T13:04:10.611Z,14.93
2018-04-06T13:05:10.695Z,15.03
2018-04-06T13:06:10.500Z,14.98
2018-04-06T13:07:10.501Z,15.02
2018-04-06T13:08:10.321Z,15.10
2018-04-06T13:09:10.414Z,14.94
2018-04-06T13:10:10.178Z,14.75
2018-04-06T13:11:10.222Z,14.83
2018-04-06T13:12:10.034Z,14.68
2018-04-06T13:13:10.131Z,14.79
2018-04-06T13:14:09.897Z,14.80
2018-04-06T13:15:09.816Z,14.74
2018-04-06T13:16:09.974Z,14.75
2018-04-06T13:17:09.675Z,14.94
2018-04-06T13:18:09.756Z,15.05
2018-04-06T13:19:09.534Z,15.02
2018-04-06T13:20:09.456Z,14.83
2018-04-06T13:21:09.491Z,14.95
2018-04-06T13:22:09.313Z,14.95
2018-04-06T13:23:09.293Z,14.91
2018-04-06T13:24:09.170Z,14.91
2018-04-06T13:25:09.094Z,15.03
2018-04-06T13:26:09.176Z,14.93
2018-04-06T13:27:08.956Z,14.87
2018-04-06T13:28:08.916Z,14.84
2018-04-06T13:29:08.809Z,14.84
2018-04-06T13:30:08.743Z,14.85
2018-04-06T13:31:08.716Z,14.84
2018-04-06T13:32:08.597Z,14.94
2018-04-06T13:33:08.525Z,15.10
2018-04-06T13:34:08.447Z,15.16
2018-04-06T13:35:08.384Z,15.26
2018-04-06T13:36:08.303Z,15.45
2018-04-06T13:37:08.249Z,15.43
2018-04-06T13:38:08.159Z,15.60
2018-04-06T13:39:08.090Z,15.60
2018-04-06T13:40:08.019Z,15.46
2018-04-06T13:41:07.944Z,15.53
2018-04-06T13:42:07.874Z,15.48
2018-04-06T13:43:07.803Z,15.34
2018-04-06T13:44:07.730Z,15.13
2018-04-06T13:45:07.654Z,15.23
2018-04-06T13:46:07.588Z,15.26
2018-04-06T13:47:07.511Z,15.39
2018-04-06T13:48:07.444Z,15.38
2018-04-06T13:49:07.376Z,15.27
2018-04-06T13:50:07.300Z,15.41
2018-04-06T13:51:07.221Z,15.42
2018-04-06T13:52:07.157Z,15.42
2018-04-06T13:53:07.087Z,15.48
2018-04-06T13:54:07.015Z,15.46
2018-04-06T13:55:06.944Z,15.53
2018-04-06T13:56:06.868Z,15.34
2018-04-06T13:57:06.794Z,15.30
2018-04-06T13:58:06.727Z,15.34
2018-04-06T13:59:06.654Z,15.39
2018-04-06T14:00:06.588Z,15.39
2018-04-06T14:01:06.597Z,15.26
2018-04-06T14:02:06.437Z,15.31
2018-04-06T14:03:06.363Z,15.28
2018-04-06T14:04:06.302Z,15.20
2018-04-06T14:05:06.222Z,14.94
2018-04-06T14:06:06.151Z,14.98
2018-04-06T14:07:06.078Z,14.93
2018-04-06T14:08:06.007Z,14.94
2018-04-06T14:09:05.938Z,15.05
2018-04-06T14:10:05.862Z,15.08
2018-04-06T14:11:05.945Z,15.12
2018-04-06T14:12:05.719Z,15.13
2018-04-06T14:13:05.647Z,15.18
2018-04-06T14:14:05.575Z,15.15
2018-04-06T14:15:05.543Z,15.20
2018-04-06T14:16:05.426Z,15.21
2018-04-06T14:17:05.395Z,15.24
2018-04-06T14:18:05.288Z,15.34
2018-04-06T14:19:05.220Z,15.31
2018-04-06T14:20:05.142Z,15.24
2018-04-06T14:21:05.072Z,15.27
2018-04-06T14:22:05.002Z,15.12
2018-04-06T14:23:04.926Z,15.21
2018-04-06T14:24:04.861Z,15.13
2018-04-06T14:25:04.779Z,15.10
2018-04-06T14:26:04.711Z,15.15
2018-04-06T14:27:04.638Z,15.16
2018-04-06T14:28:04.570Z,15.15
2018-04-06T14:29:04.492Z,15.16
2018-04-06T14:30:04.425Z,15.18
2018-04-06T14:31:04.350Z,15.30
2018-04-06T14:32:04.290Z,15.21
2018-04-06T14:33:04.205Z,15.31
2018-04-06T14:34:04.137Z,15.35
2018-04-06T14:35:04.067Z,15.34
2018-04-06T14:36:03.996Z,15.42
2018-04-06T14:37:03.916Z,15.30
2018-04-06T14:38:03.843Z,15.27
2018-04-06T14:39:03.776Z,15.34
2018-04-06T14:40:03.702Z,15.34
2018-04-06T14:41:03.640Z,15.35
2018-04-06T14:42:03.555Z,15.42
2018-04-06T14:43:03.494Z,15.43
2018-04-06T14:44:03.413Z,15.46
2018-04-06T14:45:03.350Z,15.46
2018-04-06T14:46:03.267Z,15.59
2018-04-06T14:47:03.199Z,15.59
2018-04-06T14:48:03.128Z,15.39
2018-04-06T14:49:03.055Z,15.34
2018-04-06T14:50:02.983Z,15.48
2018-04-06T14:51:02.916Z,15.34
2018-04-06T14:52:02.840Z,15.24
2018-04-06T14:53:02.771Z,15.28
2018-04-06T14:54:02.700Z,15.38
2018-04-06T14:55:02.783Z,15.21
2018-04-06T14:56:02.562Z,15.15